Time;durP1;ratioP1;P1;durP2;ratioP2;P2;SDS_P1;SDS_P2;PMS_P1;PMS_P2;Temp;Humidity;BMP_temperature;BMP_pressure;BME280_temperature;BME280_humidity;BME280_pressure;Samples;Min_cycle;Max_cycle;Signal;HPM_P1;HPM_P2
2023/01/09 00:00:05;;;;;;;3.77;2.50;;;9.50;99.90;;;;;;4982676;28;20462;-73
2023/01/09 00:02:51;;;;;;;3.97;2.57;;;9.50;99.90;;;;;;4980110;28;20434;-73
2023/01/09 00:05:37;;;;;;;3.27;2.03;;;9.50;99.90;;;;;;4979850;28;20483;-73
2023/01/09 00:08:22;;;;;;;2.60;1.77;;;9.50;99.90;;;;;;4984237;28;20453;-73
2023/01/09 00:11:08;;;;;;;2.00;1.47;;;9.50;99.90;;;;;;4982174;28;20869;-72
2023/01/09 00:13:54;;;;;;;2.73;1.67;;;9.50;99.90;;;;;;4980280;28;20442;-73
2023/01/09 00:16:41;;;;;;;2.93;1.70;;;9.40;99.90;;;;;;4987779;28;20462;-72
2023/01/09 00:19:26;;;;;;;3.70;1.97;;;9.40;99.90;;;;;;4976097;28;21049;-72
2023/01/09 00:22:12;;;;;;;1.70;1.20;;;9.40;99.90;;;;;;4978658;28;20966;-72
2023/01/09 00:24:58;;;;;;;1.83;1.37;;;9.40;99.90;;;;;;4984300;28;20517;-72
2023/01/09 00:27:43;;;;;;;3.10;1.40;;;9.40;99.90;;;;;;4985942;28;21085;-72
2023/01/09 00:30:29;;;;;;;2.57;1.57;;;9.40;99.90;;;;;;4981866;28;20440;-72
2023/01/09 00:33:18;;;;;;;1.63;1.30;;;9.50;99.90;;;;;;4973495;28;20455;-72
2023/01/09 00:36:03;;;;;;;1.60;0.90;;;9.50;99.90;;;;;;4979817;28;20493;-72
2023/01/09 00:38:49;;;;;;;1.67;1.10;;;9.50;99.90;;;;;;4987458;28;20458;-72
2023/01/09 00:41:37;;;;;;;2.13;1.37;;;9.50;99.90;;;;;;4976529;28;20462;-72
2023/01/09 00:44:28;;;;;;;2.43;1.20;;;9.60;99.90;;;;;;4983098;28;20494;-72
2023/01/09 00:47:20;;;;;;;1.87;1.03;;;9.50;99.90;;;;;;4983910;28;21100;-72
2023/01/09 00:50:11;;;;;;;1.63;1.10;;;9.50;99.90;;;;;;4977196;28;20601;-73
2023/01/09 00:53:00;;;;;;;1.93;0.97;;;9.50;99.90;;;;;;4984261;28;21038;-72
2023/01/09 00:55:45;;;;;;;1.20;0.60;;;9.50;99.90;;;;;;4977496;28;20574;-72
2023/01/09 00:58:32;;;;;;;1.50;0.93;;;9.60;99.90;;;;;;4977534;28;20525;-72
2023/01/09 01:01:18;;;;;;;1.63;0.83;;;9.60;99.90;;;;;;4978883;28;20482;-73
2023/01/09 01:07:37;;;;;;;2.17;0.90;;;9.50;99.90;;;;;;4978712;28;20462;-72
2023/01/09 01:10:19;;;;;;;1.30;0.77;;;9.60;99.90;;;;;;4979726;28;20861;-73
2023/01/09 01:13:05;;;;;;;3.23;1.07;;;9.60;99.90;;;;;;4972571;28;20932;-72
2023/01/09 01:15:51;;;;;;;1.70;0.90;;;9.60;99.90;;;;;;4970316;28;20440;-72
2023/01/09 01:18:37;;;;;;;1.70;1.13;;;9.60;99.90;;;;;;4983142;28;20496;-73
2023/01/09 01:21:22;;;;;;;2.27;1.30;;;9.60;99.90;;;;;;4977666;28;20470;-72
2023/01/09 01:24:09;;;;;;;1.90;0.90;;;9.60;99.90;;;;;;4976687;28;20462;-72
2023/01/09 01:26:55;;;;;;;2.23;1.23;;;9.70;99.90;;;;;;4971845;28;20530;-73
2023/01/09 01:29:41;;;;;;;1.80;1.00;;;9.60;99.90;;;;;;4972283;28;20443;-73
2023/01/09 01:32:26;;;;;;;1.90;1.23;;;9.70;99.90;;;;;;4976835;28;20639;-72
2023/01/09 01:35:12;;;;;;;2.50;1.00;;;9.70;99.90;;;;;;4972534;28;20505;-72
2023/01/09 01:37:58;;;;;;;2.50;1.17;;;9.70;99.90;;;;;;4984530;28;20484;-73
2023/01/09 01:40:52;;;;;;;1.63;1.00;;;9.70;99.90;;;;;;4977433;28;20537;-74
2023/01/09 01:43:51;;;;;;;2.17;1.30;;;9.70;99.90;;;;;;4975141;28;20459;-72
2023/01/09 01:46:36;;;;;;;1.87;1.40;;;9.70;99.90;;;;;;4981020;28;21022;-72
2023/01/09 01:49:22;;;;;;;2.23;1.30;;;9.70;99.90;;;;;;4976137;28;20786;-73
2023/01/09 01:52:08;;;;;;;2.30;1.60;;;9.60;99.90;;;;;;4977366;28;20475;-72
2023/01/09 01:54:54;;;;;;;2.27;1.23;;;9.60;99.90;;;;;;4975677;28;20952;-73
2023/01/09 01:57:45;;;;;;;2.30;1.47;;;9.60;99.90;;;;;;4977184;28;21273;-72
2023/01/09 02:00:33;;;;;;;2.90;1.60;;;9.60;99.90;;;;;;4977067;28;20556;-72
2023/01/09 02:03:23;;;;;;;3.80;1.60;;;9.60;99.90;;;;;;4983871;28;20458;-72
2023/01/09 02:06:09;;;;;;;2.37;1.30;;;9.60;99.90;;;;;;4975935;28;20503;-71
2023/01/09 02:08:55;;;;;;;1.60;1.20;;;9.70;99.90;;;;;;4976054;28;20439;-72
2023/01/09 02:11:44;;;;;;;1.40;1.00;;;9.60;99.90;;;;;;4979632;28;20559;-72
2023/01/09 02:14:32;;;;;;;2.60;1.30;;;9.70;99.90;;;;;;4983034;28;20507;-72
2023/01/09 02:17:30;;;;;;;1.90;1.10;;;9.70;99.90;;;;;;4973834;28;20438;-72
2023/01/09 02:20:39;;;;;;;1.80;1.10;;;9.60;99.90;;;;;;4971759;28;20434;-72
2023/01/09 02:24:05;;;;;;;1.60;1.07;;;9.60;99.90;;;;;;4976009;28;20819;-73
2023/01/09 02:27:04;;;;;;;1.70;1.10;;;9.50;99.90;;;;;;4978688;28;20488;-74
2023/01/09 02:30:25;;;;;;;2.03;1.13;;;9.50;99.90;;;;;;4977784;28;20512;-72
2023/01/09 02:33:29;;;;;;;2.30;1.20;;;9.60;99.90;;;;;;4973130;28;20573;-72
2023/01/09 02:36:22;;;;;;;1.90;1.03;;;9.60;99.90;;;;;;4977605;28;20524;-74
2023/01/09 02:39:20;;;;;;;1.83;1.13;;;9.60;99.90;;;;;;4979642;28;20994;-72
2023/01/09 02:42:10;;;;;;;3.20;1.10;;;9.50;99.90;;;;;;4977599;28;20576;-71
2023/01/09 02:44:56;;;;;;;1.90;1.30;;;9.50;99.90;;;;;;4975607;28;20530;-73
2023/01/09 02:47:44;;;;;;;2.53;1.40;;;9.60;99.90;;;;;;4981456;28;20505;-73
2023/01/09 02:50:37;;;;;;;2.80;1.40;;;9.70;99.90;;;;;;4980017;28;20483;-72
2023/01/09 02:53:52;;;;;;;1.47;1.13;;;9.70;99.90;;;;;;4982860;28;20528;-71
2023/01/09 02:56:54;;;;;;;20.93;8.37;;;9.70;99.90;;;;;;4979598;28;20564;-75
2023/01/09 02:59:55;;;;;;;4.37;2.17;;;9.70;99.90;;;;;;4976447;28;20453;-72
2023/01/09 03:02:47;;;;;;;1.90;1.30;;;9.50;99.90;;;;;;4978472;28;20451;-71
2023/01/09 03:05:40;;;;;;;6.73;1.90;;;9.50;99.90;;;;;;4981459;28;20485;-71
2023/01/09 03:08:31;;;;;;;2.00;1.70;;;9.50;99.90;;;;;;4977184;28;20899;-71
2023/01/09 03:11:17;;;;;;;4.60;2.63;;;9.50;99.90;;;;;;4986887;28;20575;-72
2023/01/09 03:14:09;;;;;;;3.30;2.03;;;9.40;99.90;;;;;;4981831;28;20519;-73
2023/01/09 03:17:00;;;;;;;2.97;2.50;;;9.50;99.90;;;;;;4975590;28;20446;-71
2023/01/09 03:19:48;;;;;;;3.63;2.43;;;9.50;99.90;;;;;;4972999;28;20422;-72
2023/01/09 03:22:33;;;;;;;2.67;2.47;;;9.40;99.90;;;;;;4982315;28;20470;-71
2023/01/09 03:25:19;;;;;;;2.40;2.13;;;9.40;99.90;;;;;;4978517;28;20537;-72
2023/01/09 03:28:06;;;;;;;2.47;2.00;;;9.50;99.90;;;;;;4983002;28;20430;-73
2023/01/09 03:30:52;;;;;;;2.23;2.03;;;9.30;99.90;;;;;;4979700;28;20477;-71
2023/01/09 03:33:38;;;;;;;3.87;2.00;;;9.30;99.90;;;;;;4980207;28;20451;-75
2023/01/09 03:36:25;;;;;;;2.73;2.53;;;9.40;99.90;;;;;;4981327;28;20916;-72
2023/01/09 03:39:11;;;;;;;2.43;2.23;;;9.40;99.90;;;;;;4977116;28;20474;-73
2023/01/09 03:41:57;;;;;;;4.13;2.50;;;9.40;99.90;;;;;;4980110;28;20560;-74
2023/01/09 03:44:42;;;;;;;2.90;2.60;;;9.40;99.90;;;;;;4977734;28;20579;-71
2023/01/09 03:47:28;;;;;;;3.23;2.93;;;9.40;99.90;;;;;;4982067;28;20469;-71
2023/01/09 03:50:14;;;;;;;4.43;3.20;;;9.40;99.90;;;;;;4977258;28;20567;-71
2023/01/09 03:53:01;;;;;;;4.50;2.50;;;9.40;99.90;;;;;;4980772;28;20455;-71
2023/01/09 03:55:49;;;;;;;5.17;3.40;;;9.40;99.90;;;;;;4981106;28;21087;-74
2023/01/09 03:58:35;;;;;;;6.60;2.90;;;9.40;99.90;;;;;;4975301;28;20451;-71
2023/01/09 04:01:20;;;;;;;2.40;2.17;;;9.30;99.90;;;;;;4981261;28;20624;-71
2023/01/09 04:04:07;;;;;;;3.60;2.60;;;9.30;99.90;;;;;;4980845;28;20467;-71
2023/01/09 04:06:53;;;;;;;7.30;3.57;;;9.30;99.90;;;;;;4981537;28;20482;-71
2023/01/09 04:09:39;;;;;;;6.77;2.70;;;9.30;99.90;;;;;;4980451;28;20462;-72
2023/01/09 04:12:25;;;;;;;4.23;2.40;;;9.40;99.90;;;;;;4981110;28;20473;-75
2023/01/09 04:15:11;;;;;;;3.83;3.00;;;9.40;99.90;;;;;;4982729;28;20815;-71
2023/01/09 04:17:57;;;;;;;3.37;2.83;;;9.30;99.90;;;;;;4978172;28;22883;-71
2023/01/09 04:20:43;;;;;;;3.40;2.80;;;9.40;99.90;;;;;;4975349;28;20828;-73
2023/01/09 04:23:28;;;;;;;4.80;2.93;;;9.30;99.90;;;;;;4982568;28;20898;-71
2023/01/09 04:26:15;;;;;;;4.27;3.27;;;9.30;99.90;;;;;;4983098;28;20615;-71
2023/01/09 04:29:01;;;;;;;3.10;2.80;;;9.20;99.90;;;;;;4979452;28;20529;-71
2023/01/09 04:31:46;;;;;;;4.13;3.20;;;9.20;99.90;;;;;;4978559;28;20835;-73
2023/01/09 04:34:32;;;;;;;5.60;3.50;;;9.20;99.90;;;;;;4981407;28;20450;-72
2023/01/09 04:37:18;;;;;;;3.30;2.90;;;9.30;99.90;;;;;;4980666;28;20443;-71
2023/01/09 04:40:06;;;;;;;5.57;4.10;;;9.20;99.90;;;;;;4980514;28;20899;-72
2023/01/09 04:42:54;;;;;;;4.43;2.90;;;9.20;99.90;;;;;;4976262;28;20466;-71
2023/01/09 04:45:39;;;;;;;2.93;2.43;;;9.30;99.90;;;;;;4984629;28;20478;-73
2023/01/09 04:48:25;;;;;;;4.50;2.80;;;9.30;99.90;;;;;;4978964;28;20929;-74
2023/01/09 04:51:10;;;;;;;2.33;1.80;;;9.30;99.90;;;;;;4976148;28;20518;-72
2023/01/09 04:53:56;;;;;;;2.93;1.60;;;9.30;99.90;;;;;;4974598;28;20528;-71
2023/01/09 04:56:42;;;;;;;1.73;1.20;;;9.40;99.90;;;;;;4983329;28;20601;-71
2023/01/09 04:59:29;;;;;;;4.90;1.40;;;9.30;99.90;;;;;;4978981;28;20540;-71
2023/01/09 05:02:15;;;;;;;1.77;1.20;;;9.20;99.90;;;;;;4978533;28;21155;-72
2023/01/09 05:05:01;;;;;;;2.30;1.10;;;9.20;99.90;;;;;;4973872;28;20454;-72
2023/01/09 05:07:46;;;;;;;2.10;1.37;;;9.20;99.90;;;;;;4972750;28;20514;-72
2023/01/09 05:10:32;;;;;;;2.73;1.27;;;9.20;99.90;;;;;;4983844;28;20444;-72
2023/01/09 05:13:18;;;;;;;2.30;1.10;;;9.10;99.90;;;;;;4986083;28;20433;-72
2023/01/09 05:16:06;;;;;;;2.03;1.33;;;9.10;99.90;;;;;;4972141;28;20976;-73
2023/01/09 05:18:55;;;;;;;1.90;1.00;;;9.00;99.90;;;;;;4983514;28;20529;-72
2023/01/09 05:21:40;;;;;;;3.20;1.30;;;9.00;99.90;;;;;;4970589;28;20459;-73
2023/01/09 05:24:26;;;;;;;1.77;1.10;;;8.90;99.90;;;;;;4981579;28;20830;-73
2023/01/09 05:27:12;;;;;;;3.30;2.20;;;8.90;99.90;;;;;;4977769;28;20512;-72
2023/01/09 05:29:57;;;;;;;3.80;1.30;;;9.00;99.90;;;;;;4978539;28;20477;-71
2023/01/09 05:32:45;;;;;;;4.70;1.30;;;8.90;99.90;;;;;;4976669;28;20915;-72
2023/01/09 05:35:30;;;;;;;2.77;1.17;;;8.90;99.90;;;;;;4973609;28;20471;-72
2023/01/09 05:38:16;;;;;;;1.60;0.87;;;8.90;99.90;;;;;;4977584;28;21010;-75
2023/01/09 05:41:02;;;;;;;2.00;1.13;;;8.90;99.90;;;;;;4978109;28;20485;-71
2023/01/09 05:43:48;;;;;;;1.67;1.00;;;8.90;99.90;;;;;;4974349;28;20498;-73
2023/01/09 05:46:33;;;;;;;2.03;1.00;;;8.80;99.90;;;;;;4975508;28;20620;-71
2023/01/09 05:49:20;;;;;;;2.30;1.30;;;8.80;99.90;;;;;;4978234;28;21001;-71
2023/01/09 05:52:06;;;;;;;2.00;1.10;;;8.90;99.90;;;;;;4977261;28;20601;-71
2023/01/09 05:54:52;;;;;;;1.37;0.80;;;8.80;99.90;;;;;;4985721;28;20462;-72
2023/01/09 05:57:38;;;;;;;4.80;1.60;;;8.90;99.90;;;;;;4977465;28;20829;-72
2023/01/09 06:00:23;;;;;;;1.60;0.97;;;8.80;99.90;;;;;;4980915;28;20813;-73
2023/01/09 06:03:09;;;;;;;3.03;1.00;;;8.70;99.90;;;;;;4980103;28;20472;-72
2023/01/09 06:05:56;;;;;;;1.60;0.97;;;8.80;99.90;;;;;;4982786;28;20475;-73
2023/01/09 06:08:42;;;;;;;2.43;1.10;;;8.80;99.90;;;;;;4972434;28;20544;-71
2023/01/09 06:11:27;;;;;;;1.43;0.80;;;8.70;99.90;;;;;;4980903;28;20921;-73
2023/01/09 06:14:13;;;;;;;4.80;1.30;;;8.60;99.90;;;;;;4982486;28;20420;-72
2023/01/09 06:16:59;;;;;;;2.70;0.90;;;8.50;99.90;;;;;;4979884;28;20863;-73
2023/01/09 06:19:45;;;;;;;2.33;0.97;;;8.50;99.90;;;;;;4984770;28;20458;-72
2023/01/09 06:22:32;;;;;;;2.07;1.10;;;8.40;99.90;;;;;;4981716;28;20471;-73
2023/01/09 06:25:18;;;;;;;1.87;0.93;;;8.40;99.90;;;;;;4979526;28;20442;-72
2023/01/09 06:28:04;;;;;;;3.70;1.10;;;8.40;99.90;;;;;;4986920;28;20412;-72
2023/01/09 06:30:51;;;;;;;4.87;1.43;;;8.40;99.90;;;;;;4984876;28;20478;-72
2023/01/09 06:33:37;;;;;;;1.95;1.30;;;8.40;99.90;;;;;;4979211;28;20466;-72
2023/01/09 06:36:23;;;;;;;1.50;0.90;;;8.40;99.90;;;;;;4977853;28;20202;-73
2023/01/09 06:39:10;;;;;;;5.20;0.90;;;8.50;99.90;;;;;;4981007;28;20572;-74
2023/01/09 06:41:55;;;;;;;2.27;1.07;;;8.40;99.90;;;;;;4983220;28;20471;-73
2023/01/09 06:44:41;;;;;;;2.37;1.10;;;8.30;99.90;;;;;;4976824;28;20443;-74
2023/01/09 06:47:27;;;;;;;2.77;1.17;;;8.30;99.90;;;;;;4980655;28;21045;-72
2023/01/09 06:50:12;;;;;;;3.20;1.10;;;8.30;99.90;;;;;;4981151;28;20592;-72
2023/01/09 06:52:58;;;;;;;5.00;1.50;;;8.30;99.90;;;;;;4979241;28;20964;-72
2023/01/09 06:55:45;;;;;;;3.03;0.97;;;8.40;99.90;;;;;;4983505;28;20454;-72
2023/01/09 06:58:31;;;;;;;5.83;1.20;;;8.30;99.90;;;;;;4978269;28;20455;-74
2023/01/09 07:01:17;;;;;;;3.00;1.10;;;8.30;99.90;;;;;;5024499;22;20483;-74
2023/01/09 07:04:04;;;;;;;4.03;1.30;;;8.40;99.90;;;;;;5102058;28;20450;-73
2023/01/09 07:06:50;;;;;;;5.00;1.40;;;8.40;99.90;;;;;;5107478;28;20522;-75
2023/01/09 07:09:36;;;;;;;4.17;1.33;;;8.40;99.90;;;;;;5103525;28;20415;-74
2023/01/09 07:12:23;;;;;;;11.07;2.20;;;8.40;99.90;;;;;;5099987;28;20972;-75
2023/01/09 07:15:10;;;;;;;6.83;1.33;;;8.30;99.90;;;;;;5108150;28;20484;-78
2023/01/09 07:17:55;;;;;;;3.83;1.00;;;8.30;99.90;;;;;;5105541;28;20995;-78
2023/01/09 07:20:41;;;;;;;4.63;1.50;;;8.30;99.90;;;;;;5103006;28;20441;-77
2023/01/09 07:23:27;;;;;;;3.55;1.08;;;8.20;99.90;;;;;;5097088;28;20508;-78
2023/01/09 07:26:12;;;;;;;2.90;1.00;;;8.20;99.90;;;;;;5098990;28;20281;-77
2023/01/09 07:29:00;;;;;;;4.33;1.40;;;8.30;99.90;;;;;;5099221;28;20456;-78
2023/01/09 07:31:45;;;;;;;7.87;1.60;;;8.30;99.90;;;;;;5107189;28;20469;-78
2023/01/09 07:34:31;;;;;;;4.03;1.47;;;8.20;99.90;;;;;;5100409;28;20435;-76
2023/01/09 07:37:17;;;;;;;3.87;1.40;;;8.20;99.90;;;;;;5103386;28;20518;-78
2023/01/09 07:40:03;;;;;;;10.43;2.63;;;8.20;99.90;;;;;;5105567;28;20550;-75
2023/01/09 07:42:49;;;;;;;5.68;1.58;;;8.10;99.90;;;;;;5101750;28;20550;-76
2023/01/09 07:45:35;;;;;;;2.47;1.20;;;8.10;99.90;;;;;;5105914;28;20202;-78
2023/01/09 07:48:21;;;;;;;6.13;1.53;;;8.00;99.90;;;;;;5113333;28;20544;-77
2023/01/09 07:51:07;;;;;;;4.07;1.30;;;8.00;99.90;;;;;;5104567;28;20448;-78
2023/01/09 07:53:52;;;;;;;8.35;1.40;;;8.00;99.90;;;;;;5104899;27;20586;-76
2023/01/09 07:56:38;;;;;;;7.70;1.50;;;8.00;99.90;;;;;;5106525;28;20199;-76
2023/01/09 07:59:25;;;;;;;8.30;1.70;;;8.10;99.90;;;;;;5105968;28;21023;-75
2023/01/09 08:02:12;;;;;;;5.35;1.58;;;8.10;99.90;;;;;;5100498;28;20541;-75
2023/01/09 08:04:57;;;;;;;5.40;2.00;;;8.20;99.90;;;;;;5102329;28;20253;-76
2023/01/09 08:07:43;;;;;;;5.60;1.40;;;8.20;99.90;;;;;;5103391;28;20823;-78
2023/01/09 08:10:29;;;;;;;11.13;2.20;;;8.20;99.90;;;;;;5106874;28;20486;-78
2023/01/09 08:13:15;;;;;;;3.03;1.27;;;8.20;99.90;;;;;;5111647;28;20448;-78
2023/01/09 08:16:00;;;;;;;6.57;2.13;;;8.20;99.90;;;;;;5110124;28;20437;-77
2023/01/09 08:18:47;;;;;;;5.50;1.90;;;8.10;99.90;;;;;;5105148;28;20491;-77
2023/01/09 08:21:33;;;;;;;6.43;1.60;;;8.10;99.90;;;;;;5108877;28;20491;-78
2023/01/09 08:24:18;;;;;;;7.10;1.87;;;8.00;99.90;;;;;;5111320;28;20444;-78
2023/01/09 08:27:04;;;;;;;5.93;2.00;;;8.10;99.90;;;;;;5103476;28;20477;-78
2023/01/09 08:29:50;;;;;;;5.60;2.03;;;8.10;99.90;;;;;;5105414;28;20444;-77
2023/01/09 08:32:36;;;;;;;6.83;1.93;;;8.10;99.90;;;;;;5106718;28;20464;-78
2023/01/09 08:35:23;;;;;;;6.47;1.97;;;8.20;99.90;;;;;;5105039;28;20420;-78
2023/01/09 08:38:09;;;;;;;3.78;1.55;;;8.30;99.90;;;;;;5106621;28;20429;-77
2023/01/09 08:40:55;;;;;;;10.33;2.23;;;8.30;99.90;;;;;;5103521;28;20253;-77
2023/01/09 08:49:47;;;;;;;10.20;2.72;;;8.30;99.90;;;;;;5106699;28;20468;-77
2023/01/09 08:52:34;;;;;;;10.48;3.08;;;8.40;99.90;;;;;;5101927;28;20633;-76
2023/01/09 08:55:20;;;;;;;10.90;3.10;;;8.50;99.90;;;;;;5106469;28;20215;-77
2023/01/09 08:58:06;;;;;;;5.03;1.80;;;8.50;99.90;;;;;;5104965;28;21046;-78
2023/01/09 09:00:51;;;;;;;16.40;6.23;;;8.60;99.90;;;;;;5104602;28;20436;-77
2023/01/09 09:03:37;;;;;;;9.87;3.37;;;8.60;99.90;;;;;;5103285;28;21002;-76
2023/01/09 09:06:23;;;;;;;8.30;3.17;;;8.60;99.90;;;;;;5098956;28;20401;-74
2023/01/09 09:09:11;;;;;;;7.60;1.67;;;8.60;99.90;;;;;;5103533;28;20516;-78
2023/01/09 09:11:56;;;;;;;17.00;2.75;;;8.60;99.90;;;;;;5103875;28;20418;-78
2023/01/09 09:17:45;;;;;;;8.83;1.63;;;8.60;99.90;;;;;;5105388;28;20983;-78
2023/01/09 09:20:34;;;;;;;11.50;3.17;;;8.60;99.90;;;;;;5101343;28;20818;-77
2023/01/09 09:23:21;;;;;;;6.43;2.53;;;8.60;99.90;;;;;;5095955;28;21092;-76
2023/01/09 09:26:08;;;;;;;3.10;1.13;;;8.60;99.90;;;;;;5095930;28;20454;-75
2023/01/09 09:28:53;;;;;;;3.10;1.30;;;8.70;99.90;;;;;;5097424;28;20518;-76
2023/01/09 09:31:39;;;;;;;5.30;1.43;;;8.70;99.90;;;;;;5099856;28;20458;-76
2023/01/09 09:34:24;;;;;;;3.23;1.40;;;8.80;99.90;;;;;;5100414;28;20408;-75
2023/01/09 09:37:10;;;;;;;7.77;1.70;;;8.80;99.90;;;;;;5097757;28;21075;-77
2023/01/09 09:39:56;;;;;;;9.37;1.37;;;8.80;99.90;;;;;;5103121;28;20437;-76
2023/01/09 09:46:25;;;;;;;7.90;1.50;;;8.80;99.90;;;;;;5097830;28;20488;-75
2023/01/09 09:49:16;;;;;;;6.43;1.10;;;8.70;99.90;;;;;;5097698;28;20476;-76
2023/01/09 09:52:13;;;;;;;7.43;1.40;;;8.80;99.90;;;;;;5096352;28;20570;-76
2023/01/09 09:55:02;;;;;;;10.33;2.40;;;8.60;99.90;;;;;;5102279;28;20489;-78
2023/01/09 09:57:50;;;;;;;3.83;1.20;;;8.70;99.90;;;;;;5101603;28;20908;-76
2023/01/09 10:00:37;;;;;;;9.20;1.50;;;8.80;99.90;;;;;;5092953;28;20433;-76
2023/01/09 10:03:28;;;;;;;4.50;1.13;;;8.80;99.90;;;;;;5105684;28;20404;-78
2023/01/09 10:06:21;;;;;;;5.60;1.70;;;8.60;99.90;;;;;;5105103;28;20441;-77
2023/01/09 10:09:20;;;;;;;6.90;1.40;;;8.50;99.90;;;;;;5100842;28;20417;-78
2023/01/09 10:12:18;;;;;;;3.83;1.47;;;8.50;99.90;;;;;;5097798;28;20514;-75
2023/01/09 10:15:15;;;;;;;6.93;1.63;;;8.50;99.90;;;;;;5101858;28;20790;-77
2023/01/09 10:18:14;;;;;;;8.20;2.63;;;8.50;99.90;;;;;;5105074;28;20479;-77
2023/01/09 10:21:06;;;;;;;9.13;2.70;;;8.40;99.90;;;;;;5103409;28;20427;-76
2023/01/09 10:24:15;;;;;;;4.00;1.73;;;8.40;99.90;;;;;;5098656;28;20584;-78
2023/01/09 10:27:09;;;;;;;5.30;2.43;;;8.40;99.90;;;;;;5102934;28;20206;-77
2023/01/09 10:30:04;;;;;;;4.73;1.30;;;8.50;99.90;;;;;;5110931;28;20430;-79
2023/01/09 10:33:00;;;;;;;2.43;1.20;;;8.50;99.90;;;;;;5099554;28;20432;-78
2023/01/09 10:36:13;;;;;;;7.73;1.50;;;8.40;99.90;;;;;;5099094;28;20925;-76
2023/01/09 10:39:03;;;;;;;4.17;1.53;;;8.40;99.90;;;;;;5094900;28;20421;-76
2023/01/09 10:41:55;;;;;;;6.30;1.63;;;8.50;99.90;;;;;;5096936;28;20848;-75
2023/01/09 10:44:49;;;;;;;3.40;1.40;;;8.50;99.90;;;;;;5104823;28;20403;-76
2023/01/09 10:47:38;;;;;;;5.53;1.53;;;8.50;99.90;;;;;;5093046;28;20986;-76
2023/01/09 10:50:26;;;;;;;3.93;1.20;;;8.50;99.90;;;;;;5101492;28;20450;-78
2023/01/09 10:53:20;;;;;;;2.17;0.80;;;8.30;99.90;;;;;;5102202;28;20479;-77
2023/01/09 10:56:17;;;;;;;5.30;1.50;;;8.30;99.90;;;;;;5096749;28;20513;-75
2023/01/09 10:59:03;;;;;;;6.63;1.63;;;8.30;99.90;;;;;;5104393;28;20981;-75
2023/01/09 11:01:48;;;;;;;5.07;1.70;;;8.20;99.90;;;;;;5098070;28;21065;-75
2023/01/09 11:04:37;;;;;;;2.03;1.00;;;8.30;99.90;;;;;;5098866;28;20487;-78
2023/01/09 11:07:26;;;;;;;4.03;2.23;;;8.50;99.90;;;;;;5105489;28;20440;-77
2023/01/09 11:10:15;;;;;;;2.30;0.95;;;8.40;99.90;;;;;;5095593;28;20404;-76
2023/01/09 11:13:14;;;;;;;3.90;1.27;;;8.40;99.90;;;;;;5101615;28;20212;-78
2023/01/09 11:16:04;;;;;;;3.43;0.90;;;8.30;99.90;;;;;;5107436;28;20424;-76
2023/01/09 11:18:53;;;;;;;8.30;1.13;;;8.30;99.90;;;;;;5082344;22;20490;-72
2023/01/09 11:21:40;;;;;;;2.93;1.43;;;8.40;99.90;;;;;;4989849;28;20457;-71
2023/01/09 11:24:30;;;;;;;5.93;1.30;;;8.50;99.90;;;;;;4982821;28;20986;-72
2023/01/09 11:27:26;;;;;;;4.33;1.10;;;8.50;99.90;;;;;;4974255;28;20587;-73
2023/01/09 11:30:25;;;;;;;7.90;1.27;;;8.50;99.90;;;;;;4992889;28;20986;-72
2023/01/09 11:33:18;;;;;;;13.40;1.20;;;8.50;99.90;;;;;;5002627;28;20426;-74
2023/01/09 11:36:09;;;;;;;8.40;1.80;;;8.50;99.90;;;;;;5002031;28;20931;-74
2023/01/09 11:38:57;;;;;;;4.50;1.33;;;8.50;99.90;;;;;;4998668;28;20438;-73
2023/01/09 11:41:43;;;;;;;3.80;1.33;;;8.40;99.90;;;;;;5001591;28;20449;-74
2023/01/09 11:44:31;;;;;;;6.77;1.27;;;8.40;99.90;;;;;;5006537;28;20433;-72
2023/01/09 11:47:35;;;;;;;3.75;1.38;;;8.50;99.90;;;;;;5004292;28;20510;-72
2023/01/09 11:50:24;;;;;;;5.53;1.23;;;8.60;99.90;;;;;;5003016;28;20252;-74
2023/01/09 11:53:14;;;;;;;2.10;1.30;;;8.60;99.90;;;;;;5016219;28;20674;-72
2023/01/09 11:56:01;;;;;;;3.50;1.23;;;8.60;99.90;;;;;;4998536;28;21606;-74
2023/01/09 11:58:47;;;;;;;2.17;1.00;;;8.50;99.90;;;;;;4998931;28;20452;-74
2023/01/09 12:01:58;;;;;;;10.60;1.30;;;8.50;99.90;;;;;;5008146;28;20456;-74
2023/01/09 12:04:50;;;;;;;2.30;1.00;;;8.50;99.90;;;;;;5021344;28;20792;-74
2023/01/09 12:07:50;;;;;;;2.70;1.10;;;8.60;99.90;;;;;;5002680;28;20451;-74
2023/01/09 12:10:59;;;;;;;5.00;1.13;;;8.50;99.90;;;;;;5005633;28;20869;-74
2023/01/09 12:14:03;;;;;;;3.30;1.13;;;8.50;99.90;;;;;;5003901;28;20984;-73
2023/01/09 12:17:05;;;;;;;2.37;0.93;;;8.40;99.90;;;;;;4997321;28;20520;-74
2023/01/09 12:20:20;;;;;;;3.33;0.90;;;8.40;99.90;;;;;;4995516;28;20940;-73
2023/01/09 12:23:24;;;;;;;7.30;1.73;;;8.40;99.90;;;;;;5013259;28;20946;-74
2023/01/09 12:26:17;;;;;;;8.67;1.97;;;8.40;99.90;;;;;;4999697;28;20424;-73
2023/01/09 12:29:44;;;;;;;3.97;1.27;;;8.30;99.90;;;;;;5009392;28;20555;-73
2023/01/09 12:32:48;;;;;;;3.97;1.40;;;8.40;99.90;;;;;;5006036;28;20448;-73
2023/01/09 12:35:40;;;;;;;4.87;1.30;;;8.40;99.90;;;;;;5004605;28;20550;-73
2023/01/09 12:38:41;;;;;;;3.63;1.17;;;8.30;99.90;;;;;;5000432;28;20600;-74
2023/01/09 12:41:47;;;;;;;3.33;1.47;;;8.20;99.90;;;;;;5003840;28;20434;-73
2023/01/09 12:44:53;;;;;;;3.10;1.20;;;8.20;99.90;;;;;;5004403;28;20930;-73
2023/01/09 12:47:45;;;;;;;3.03;1.00;;;8.20;99.90;;;;;;4994761;28;20422;-73
2023/01/09 12:50:54;;;;;;;5.63;1.23;;;8.20;99.90;;;;;;5007591;28;20412;-73
2023/01/09 12:53:43;;;;;;;5.97;1.20;;;8.30;99.90;;;;;;5004721;28;20405;-73
2023/01/09 12:56:33;;;;;;;2.83;0.90;;;8.30;99.90;;;;;;4998614;28;20442;-73
2023/01/09 12:59:29;;;;;;;8.00;1.57;;;8.30;99.90;;;;;;5005185;28;20533;-73
2023/01/09 13:02:23;;;;;;;4.13;1.43;;;8.30;99.90;;;;;;5016751;28;20479;-73
2023/01/09 13:05:18;;;;;;;5.37;2.27;;;8.30;99.90;;;;;;5017031;28;20570;-73
2023/01/09 13:08:07;;;;;;;4.27;1.50;;;8.20;99.90;;;;;;5003441;28;20528;-74
2023/01/09 13:10:56;;;;;;;5.60;2.07;;;8.20;99.90;;;;;;5001785;28;20442;-73
2023/01/09 13:13:47;;;;;;;5.93;2.10;;;8.30;99.90;;;;;;5005014;28;20816;-74
2023/01/09 13:16:40;;;;;;;3.33;1.20;;;8.20;99.90;;;;;;5006120;28;20440;-73
2023/01/09 13:19:29;;;;;;;2.50;1.37;;;8.20;99.90;;;;;;5007214;28;20540;-74
2023/01/09 13:22:17;;;;;;;3.93;1.63;;;8.30;99.90;;;;;;5001164;28;20446;-74
2023/01/09 13:25:32;;;;;;;7.43;2.20;;;8.20;99.90;;;;;;5004416;28;20449;-74
2023/01/09 13:28:21;;;;;;;6.17;1.50;;;8.20;99.90;;;;;;4995562;28;20481;-74
2023/01/09 13:31:38;;;;;;;4.70;1.20;;;8.20;99.90;;;;;;5002264;28;20441;-72
2023/01/09 13:34:26;;;;;;;3.57;1.70;;;8.20;99.90;;;;;;5001449;28;20499;-74
2023/01/09 13:37:22;;;;;;;4.40;3.03;;;8.20;99.90;;;;;;4998138;28;20482;-74
2023/01/09 13:40:26;;;;;;;3.80;2.00;;;8.10;99.90;;;;;;5002881;28;21009;-74
2023/01/09 13:43:13;;;;;;;3.77;1.90;;;8.20;99.90;;;;;;4998453;28;20587;-74
2023/01/09 13:45:59;;;;;;;3.40;1.57;;;8.30;99.90;;;;;;5005672;28;20427;-74
2023/01/09 13:48:45;;;;;;;2.97;1.73;;;8.20;99.90;;;;;;5004990;28;20511;-74
2023/01/09 13:51:59;;;;;;;13.87;8.60;;;8.30;99.90;;;;;;4997117;28;20988;-74
2023/01/09 13:55:34;;;;;;;3.40;1.90;;;8.30;99.90;;;;;;4995516;28;21002;-74
2023/01/09 13:58:24;;;;;;;16.57;9.00;;;8.30;99.90;;;;;;5001288;28;20512;-74
2023/01/09 14:01:49;;;;;;;7.90;2.90;;;8.30;99.90;;;;;;5001322;28;20458;-74
2023/01/09 14:04:52;;;;;;;2.57;1.57;;;8.30;99.90;;;;;;4991383;28;20737;-74
2023/01/09 14:07:40;;;;;;;3.93;2.10;;;8.40;99.90;;;;;;4999128;28;20637;-74
2023/01/09 14:10:27;;;;;;;4.60;2.20;;;8.40;99.90;;;;;;5002186;28;20578;-74
2023/01/09 14:13:17;;;;;;;8.50;1.90;;;8.40;99.90;;;;;;4999260;28;20931;-74
2023/01/09 14:16:07;;;;;;;8.90;4.10;;;8.40;99.90;;;;;;5003937;28;20954;-74
2023/01/09 14:18:58;;;;;;;10.10;4.60;;;8.50;99.90;;;;;;4995668;28;20449;-74
2023/01/09 14:21:51;;;;;;;7.50;4.40;;;8.60;99.90;;;;;;5001082;28;20583;-74
2023/01/09 14:24:42;;;;;;;7.67;2.87;;;8.60;99.90;;;;;;4999133;28;20474;-74
2023/01/09 14:28:09;;;;;;;2.83;1.50;;;8.60;99.90;;;;;;5004846;28;20518;-74
2023/01/09 14:31:08;;;;;;;11.67;6.83;;;8.60;99.90;;;;;;5002553;28;20927;-74
2023/01/09 14:34:25;;;;;;;5.63;2.83;;;8.50;99.90;;;;;;4999190;28;20929;-74
2023/01/09 14:37:14;;;;;;;2.30;1.10;;;8.50;99.90;;;;;;5001743;28;20981;-74
2023/01/09 14:40:00;;;;;;;4.03;1.50;;;8.50;99.90;;;;;;5000896;28;20486;-74
2023/01/09 14:42:48;;;;;;;6.00;1.53;;;8.40;99.90;;;;;;5001154;28;20435;-75
2023/01/09 14:45:35;;;;;;;5.43;1.23;;;8.20;99.90;;;;;;4998256;28;20454;-74
2023/01/09 14:48:23;;;;;;;2.70;1.40;;;8.20;99.90;;;;;;5000422;28;20451;-75
2023/01/09 14:51:14;;;;;;;6.65;1.73;;;8.10;99.90;;;;;;5005707;28;20452;-74
2023/01/09 14:54:03;;;;;;;8.77;3.40;;;8.00;99.90;;;;;;5001328;28;20278;-74
2023/01/09 14:56:49;;;;;;;7.97;2.63;;;8.00;99.90;;;;;;5004109;28;20938;-75
2023/01/09 14:59:35;;;;;;;6.17;1.67;;;8.20;99.90;;;;;;5001486;28;20539;-75
2023/01/09 15:02:21;;;;;;;3.00;1.60;;;8.20;99.90;;;;;;5001245;28;20489;-74
2023/01/09 15:05:11;;;;;;;1.97;0.90;;;8.20;99.90;;;;;;5002166;28;20526;-74
2023/01/09 15:08:00;;;;;;;3.07;1.13;;;8.30;99.90;;;;;;5001275;28;20469;-74
2023/01/09 15:10:47;;;;;;;2.60;1.43;;;8.30;99.90;;;;;;5005813;28;20437;-74